createdAt,value
2023-03-11T07:10:18.493Z,99630.57
2023-03-11T07:11:17.326Z,99648.757
2023-03-11T07:12:20.032Z,99657.781
2023-03-11T07:13:16.205Z,99695.125
2023-03-11T07:14:18.335Z,99712.617
2023-03-11T07:15:17.329Z,99737.304
2023-03-11T07:16:16.418Z,99767.468
2023-03-11T07:17:17.356Z,99783.703
2023-03-11T07:18:17.260Z,99798.546
2023-03-11T07:19:17.360Z,99821.656
2023-03-11T07:20:17.355Z,99835.468
2023-03-11T07:21:18.332Z,99831.031
2023-03-11T07:22:16.252Z,99835.14
2023-03-11T07:23:17.725Z,99839.468
2023-03-11T07:24:17.339Z,99843.687
2023-03-11T07:25:19.129Z,99850.406
2023-03-11T07:26:16.165Z,99852.851
2023-03-11T07:27:19.265Z,99849.562
2023-03-11T07:28:17.233Z,99843.593
2023-03-11T07:29:18.173Z,99845.359
2023-03-11T07:30:17.685Z,99840.679
2023-03-11T07:31:18.158Z,99853.796
2023-03-11T07:32:16.098Z,99853.664
2023-03-11T07:33:18.104Z,99861.921
2023-03-11T07:34:16.097Z,99848.75
2023-03-11T07:35:16.068Z,99827.546
2023-03-11T07:36:18.088Z,99805.117
2023-03-11T07:37:16.036Z,99788.453
2023-03-11T07:38:20.634Z,99774.5
2023-03-11T07:39:17.036Z,99768.445
2023-03-11T07:40:18.223Z,99763.359
2023-03-11T07:41:17.961Z,99753.453
2023-03-11T07:42:19.046Z,99749.164
2023-03-11T07:43:17.013Z,99758.945
2023-03-11T07:44:17.795Z,99751.843
2023-03-11T07:45:16.051Z,99737.554
2023-03-11T07:46:17.118Z,99713.085
2023-03-11T07:47:17.964Z,99701.429
2023-03-11T07:48:17.950Z,99686.984
2023-03-11T07:49:16.095Z,99684.421
